sensor_id;sensor_type;location;lat;lon;timestamp;temperature;humidity
11091;DHT22;5599;52.210;21.046;2022-12-18T00:00:23;-2.80;78.20
11091;DHT22;5599;52.210;21.046;2022-12-18T00:02:53;-2.80;1.00
11091;DHT22;5599;52.210;21.046;2022-12-18T00:05:22;-2.80;1.00
11091;DHT22;5599;52.210;21.046;2022-12-18T00:07:51;-2.90;99.90
11091;DHT22;5599;52.210;21.046;2022-12-18T00:10:22;-2.70;99.90
11091;DHT22;5599;52.210;21.046;2022-12-18T00:12:51;-2.70;1.00
11091;DHT22;5599;52.210;21.046;2022-12-18T00:15:20;-2.60;1.00
11091;DHT22;5599;52.210;21.046;2022-12-18T00:17:49;-2.60;99.90
11091;DHT22;5599;52.210;21.046;2022-12-18T00:20:18;-2.60;1.00
11091;DHT22;5599;52.210;21.046;2022-12-18T00:22:53;-2.50;99.90
11091;DHT22;5599;52.210;21.046;2022-12-18T00:25:24;-2.60;30.60
11091;DHT22;5599;52.210;21.046;2022-12-18T00:27:53;-2.60;99.90
11091;DHT22;5599;52.210;21.046;2022-12-18T00:30:22;-2.80;99.90
11091;DHT22;5599;52.210;21.046;2022-12-18T00:32:51;-2.80;99.90
11091;DHT22;5599;52.210;21.046;2022-12-18T00:35:20;-2.90;99.90
11091;DHT22;5599;52.210;21.046;2022-12-18T00:37:50;-2.90;1.00
11091;DHT22;5599;52.210;21.046;2022-12-18T00:40:19;-3.00;1.00
11091;DHT22;5599;52.210;21.046;2022-12-18T00:42:49;-3.10;1.00
11091;DHT22;5599;52.210;21.046;2022-12-18T00:45:23;-3.00;1.00
11091;DHT22;5599;52.210;21.046;2022-12-18T00:47:53;-3.00;99.90
11091;DHT22;5599;52.210;21.046;2022-12-18T00:50:24;-3.00;99.90
11091;DHT22;5599;52.210;21.046;2022-12-18T00:52:53;-2.90;99.90
11091;DHT22;5599;52.210;21.046;2022-12-18T00:55:22;-2.90;99.90
11091;DHT22;5599;52.210;21.046;2022-12-18T00:57:53;-2.80;1.00
11091;DHT22;5599;52.210;21.046;2022-12-18T01:00:22;-2.80;99.90
11091;DHT22;5599;52.210;21.046;2022-12-18T01:02:51;-2.80;99.90
11091;DHT22;5599;52.210;21.046;2022-12-18T01:05:20;-2.70;99.90
11091;DHT22;5599;52.210;21.046;2022-12-18T01:07:51;-2.70;99.90
11091;DHT22;5599;52.210;21.046;2022-12-18T01:10:20;-2.60;99.90
11091;DHT22;5599;52.210;21.046;2022-12-18T01:12:49;-2.60;99.90
11091;DHT22;5599;52.210;21.046;2022-12-18T01:15:19;-2.60;99.90
11091;DHT22;5599;52.210;21.046;2022-12-18T01:17:48;-2.70;18.70
11091;DHT22;5599;52.210;21.046;2022-12-18T01:20:20;-2.70;1.00
11091;DHT22;5599;52.210;21.046;2022-12-18T01:22:49;-2.80;1.00
11091;DHT22;5599;52.210;21.046;2022-12-18T01:25:18;-2.80;1.00
11091;DHT22;5599;52.210;21.046;2022-12-18T01:27:47;-2.90;1.00
11091;DHT22;5599;52.210;21.046;2022-12-18T01:30:16;-2.90;1.00
11091;DHT22;5599;52.210;21.046;2022-12-18T01:32:47;-2.90;1.00
11091;DHT22;5599;52.210;21.046;2022-12-18T01:35:16;-2.80;99.90
11091;DHT22;5599;52.210;21.046;2022-12-18T01:37:46;-2.70;99.90
11091;DHT22;5599;52.210;21.046;2022-12-18T01:40:15;-2.60;99.90
11091;DHT22;5599;52.210;21.046;2022-12-18T01:42:44;-2.60;1.00
11091;DHT22;5599;52.210;21.046;2022-12-18T01:45:25;-2.50;99.90
11091;DHT22;5599;52.210;21.046;2022-12-18T01:47:58;-2.50;1.00
11091;DHT22;5599;52.210;21.046;2022-12-18T01:50:31;-2.50;99.90
11091;DHT22;5599;52.210;21.046;2022-12-18T01:53:05;-2.40;99.90
11091;DHT22;5599;52.210;21.046;2022-12-18T01:55:39;-2.50;19.50
11091;DHT22;5599;52.210;21.046;2022-12-18T01:58:10;-2.40;99.90
11091;DHT22;5599;52.210;21.046;2022-12-18T02:00:39;-2.20;99.90
11091;DHT22;5599;52.210;21.046;2022-12-18T02:03:10;-2.20;99.90
11091;DHT22;5599;52.210;21.046;2022-12-18T02:05:45;-2.30;99.90
11091;DHT22;5599;52.210;21.046;2022-12-18T02:08:21;-2.30;73.30
11091;DHT22;5599;52.210;21.046;2022-12-18T02:11:00;-2.40;1.00
11091;DHT22;5599;52.210;21.046;2022-12-18T02:13:41;-2.50;99.90
11091;DHT22;5599;52.210;21.046;2022-12-18T02:16:21;-2.60;1.00
11091;DHT22;5599;52.210;21.046;2022-12-18T02:18:59;-2.60;1.00
11091;DHT22;5599;52.210;21.046;2022-12-18T02:21:36;-2.50;99.90
11091;DHT22;5599;52.210;21.046;2022-12-18T02:24:21;-2.40;99.90
11091;DHT22;5599;52.210;21.046;2022-12-18T02:26:56;-2.70;99.90
11091;DHT22;5599;52.210;21.046;2022-12-18T02:29:32;-2.80;1.00
11091;DHT22;5599;52.210;21.046;2022-12-18T02:32:06;-2.80;1.00
11091;DHT22;5599;52.210;21.046;2022-12-18T02:34:38;-2.70;1.00
11091;DHT22;5599;52.210;21.046;2022-12-18T02:37:16;-2.60;1.00
11091;DHT22;5599;52.210;21.046;2022-12-18T02:39:49;-2.70;1.00
11091;DHT22;5599;52.210;21.046;2022-12-18T02:42:22;-2.80;7.10
11091;DHT22;5599;52.210;21.046;2022-12-18T02:44:55;-2.80;1.00
11091;DHT22;5599;52.210;21.046;2022-12-18T02:47:29;-2.90;1.00
11091;DHT22;5599;52.210;21.046;2022-12-18T02:50:07;-2.80;99.90
11091;DHT22;5599;52.210;21.046;2022-12-18T02:52:45;-2.80;99.90
11091;DHT22;5599;52.210;21.046;2022-12-18T02:55:28;-2.80;1.00
11091;DHT22;5599;52.210;21.046;2022-12-18T02:58:10;-2.80;99.90
11091;DHT22;5599;52.210;21.046;2022-12-18T03:00:51;-2.80;99.90
11091;DHT22;5599;52.210;21.046;2022-12-18T03:03:25;-2.90;99.90
11091;DHT22;5599;52.210;21.046;2022-12-18T03:06:01;-2.80;99.90
11091;DHT22;5599;52.210;21.046;2022-12-18T03:08:37;-2.80;1.00
11091;DHT22;5599;52.210;21.046;2022-12-18T03:11:10;-2.80;1.00
11091;DHT22;5599;52.210;21.046;2022-12-18T03:13:45;-2.90;99.90
11091;DHT22;5599;52.210;21.046;2022-12-18T03:16:19;-2.90;99.90
11091;DHT22;5599;52.210;21.046;2022-12-18T03:18:54;-2.80;1.00
11091;DHT22;5599;52.210;21.046;2022-12-18T03:21:29;-2.80;84.40
11091;DHT22;5599;52.210;21.046;2022-12-18T03:24:00;-2.90;99.90
11091;DHT22;5599;52.210;21.046;2022-12-18T03:26:30;-2.80;99.90
11091;DHT22;5599;52.210;21.046;2022-12-18T03:29:08;-2.90;99.90
11091;DHT22;5599;52.210;21.046;2022-12-18T03:31:40;-2.80;1.00
11091;DHT22;5599;52.210;21.046;2022-12-18T03:34:14;-2.80;1.00
11091;DHT22;5599;52.210;21.046;2022-12-18T03:36:46;-2.80;1.00
11091;DHT22;5599;52.210;21.046;2022-12-18T03:39:15;-2.80;99.90
11091;DHT22;5599;52.210;21.046;2022-12-18T03:41:55;-2.70;99.90
11091;DHT22;5599;52.210;21.046;2022-12-18T03:44:43;-2.60;1.00
11091;DHT22;5599;52.210;21.046;2022-12-18T03:47:15;-2.50;1.00
11091;DHT22;5599;52.210;21.046;2022-12-18T03:49:49;-2.50;1.00
11091;DHT22;5599;52.210;21.046;2022-12-18T03:52:24;-2.40;99.90
11091;DHT22;5599;52.210;21.046;2022-12-18T03:54:56;-2.50;1.00
11091;DHT22;5599;52.210;21.046;2022-12-18T03:57:28;-2.50;99.90
11091;DHT22;5599;52.210;21.046;2022-12-18T04:00:03;-2.50;1.00
11091;DHT22;5599;52.210;21.046;2022-12-18T04:02:43;-2.40;1.00
11091;DHT22;5599;52.210;21.046;2022-12-18T04:05:20;-2.50;1.00
11091;DHT22;5599;52.210;21.046;2022-12-18T04:07:51;-2.50;99.90
11091;DHT22;5599;52.210;21.046;2022-12-18T04:10:22;-2.60;21.40
11091;DHT22;5599;52.210;21.046;2022-12-18T04:12:55;-2.70;99.90
11091;DHT22;5599;52.210;21.046;2022-12-18T04:15:27;-2.70;1.00
11091;DHT22;5599;52.210;21.046;2022-12-18T04:17:58;-2.60;99.90
11091;DHT22;5599;52.210;21.046;2022-12-18T04:20:35;-2.50;1.00
11091;DHT22;5599;52.210;21.046;2022-12-18T04:23:04;-2.50;99.90
11091;DHT22;5599;52.210;21.046;2022-12-18T04:25:34;-2.50;1.00
11091;DHT22;5599;52.210;21.046;2022-12-18T04:28:09;-2.40;23.60
11091;DHT22;5599;52.210;21.046;2022-12-18T04:30:40;-2.30;1.00
11091;DHT22;5599;52.210;21.046;2022-12-18T04:33:10;-2.40;15.00
11091;DHT22;5599;52.210;21.046;2022-12-18T04:35:39;-2.40;99.90
11091;DHT22;5599;52.210;21.046;2022-12-18T04:38:09;-2.40;99.90
11091;DHT22;5599;52.210;21.046;2022-12-18T04:40:39;-2.40;1.00
11091;DHT22;5599;52.210;21.046;2022-12-18T04:43:16;-2.50;1.00
11091;DHT22;5599;52.210;21.046;2022-12-18T04:45:47;-2.50;1.00
11091;DHT22;5599;52.210;21.046;2022-12-18T04:48:16;-2.50;1.00
11091;DHT22;5599;52.210;21.046;2022-12-18T04:50:46;-2.40;1.00
11091;DHT22;5599;52.210;21.046;2022-12-18T04:53:15;-2.40;1.00
11091;DHT22;5599;52.210;21.046;2022-12-18T04:55:44;-2.40;1.00
11091;DHT22;5599;52.210;21.046;2022-12-18T04:58:13;-2.40;99.90
11091;DHT22;5599;52.210;21.046;2022-12-18T05:00:43;-2.60;99.90
11091;DHT22;5599;52.210;21.046;2022-12-18T05:03:14;-2.60;1.00
11091;DHT22;5599;52.210;21.046;2022-12-18T05:05:43;-2.60;1.00
11091;DHT22;5599;52.210;21.046;2022-12-18T05:08:12;-2.60;1.00
11091;DHT22;5599;52.210;21.046;2022-12-18T05:10:41;-2.60;1.00
11091;DHT22;5599;52.210;21.046;2022-12-18T05:13:10;-2.60;37.40
11091;DHT22;5599;52.210;21.046;2022-12-18T05:15:39;-2.60;1.00
11091;DHT22;5599;52.210;21.046;2022-12-18T05:18:09;-2.60;28.10
11091;DHT22;5599;52.210;21.046;2022-12-18T05:20:39;-2.60;68.90
11091;DHT22;5599;52.210;21.046;2022-12-18T05:23:08;-2.60;99.90
11091;DHT22;5599;52.210;21.046;2022-12-18T05:25:37;-2.60;99.90
11091;DHT22;5599;52.210;21.046;2022-12-18T05:28:07;-2.70;1.00
11091;DHT22;5599;52.210;21.046;2022-12-18T05:30:37;-2.80;1.00
11091;DHT22;5599;52.210;21.046;2022-12-18T05:33:05;-2.90;1.00
11091;DHT22;5599;52.210;21.046;2022-12-18T05:35:34;-2.80;1.00
11091;DHT22;5599;52.210;21.046;2022-12-18T05:38:05;-2.80;1.00
11091;DHT22;5599;52.210;21.046;2022-12-18T05:40:34;-2.80;1.00
11091;DHT22;5599;52.210;21.046;2022-12-18T05:43:04;-2.80;1.00
11091;DHT22;5599;52.210;21.046;2022-12-18T05:45:33;-2.80;99.90
11091;DHT22;5599;52.210;21.046;2022-12-18T05:48:05;-2.90;1.00
11091;DHT22;5599;52.210;21.046;2022-12-18T05:50:34;-2.90;1.00
11091;DHT22;5599;52.210;21.046;2022-12-18T05:53:06;-3.00;1.00
11091;DHT22;5599;52.210;21.046;2022-12-18T05:55:37;-2.90;98.40
11091;DHT22;5599;52.210;21.046;2022-12-18T05:58:08;-2.90;99.90
11091;DHT22;5599;52.210;21.046;2022-12-18T06:00:42;-3.00;99.90
11091;DHT22;5599;52.210;21.046;2022-12-18T06:03:12;-3.10;99.90
11091;DHT22;5599;52.210;21.046;2022-12-18T06:05:43;-3.20;99.90
11091;DHT22;5599;52.210;21.046;2022-12-18T06:08:14;-3.20;1.00
11091;DHT22;5599;52.210;21.046;2022-12-18T06:10:50;-3.30;99.90
11091;DHT22;5599;52.210;21.046;2022-12-18T06:13:20;-3.20;99.90
11091;DHT22;5599;52.210;21.046;2022-12-18T06:15:49;-3.30;99.90
11091;DHT22;5599;52.210;21.046;2022-12-18T06:18:18;-3.40;99.90
11091;DHT22;5599;52.210;21.046;2022-12-18T06:20:55;-3.30;1.00
11091;DHT22;5599;52.210;21.046;2022-12-18T06:23:25;-3.40;1.00
11091;DHT22;5599;52.210;21.046;2022-12-18T06:25:55;-3.60;1.00
11091;DHT22;5599;52.210;21.046;2022-12-18T06:28:24;-3.60;1.00
11091;DHT22;5599;52.210;21.046;2022-12-18T06:30:53;-3.60;99.90
11091;DHT22;5599;52.210;21.046;2022-12-18T06:33:22;-3.60;1.00
11091;DHT22;5599;52.210;21.046;2022-12-18T06:35:54;-3.60;99.90
11091;DHT22;5599;52.210;21.046;2022-12-18T06:38:29;-3.60;1.00
11091;DHT22;5599;52.210;21.046;2022-12-18T06:40:58;-3.60;1.00
11091;DHT22;5599;52.210;21.046;2022-12-18T06:43:27;-3.60;1.00
11091;DHT22;5599;52.210;21.046;2022-12-18T06:45:59;-3.60;1.00
11091;DHT22;5599;52.210;21.046;2022-12-18T06:48:28;-3.60;66.90
11091;DHT22;5599;52.210;21.046;2022-12-18T06:50:57;-3.60;99.90
11091;DHT22;5599;52.210;21.046;2022-12-18T06:53:27;-3.50;99.90
11091;DHT22;5599;52.210;21.046;2022-12-18T06:56:01;-3.40;99.90
11091;DHT22;5599;52.210;21.046;2022-12-18T06:58:36;-3.30;99.90
11091;DHT22;5599;52.210;21.046;2022-12-18T07:01:07;-3.20;99.90
11091;DHT22;5599;52.210;21.046;2022-12-18T07:03:37;-3.10;1.00
11091;DHT22;5599;52.210;21.046;2022-12-18T07:06:11;-3.00;1.00
11091;DHT22;5599;52.210;21.046;2022-12-18T07:08:41;-2.90;99.90
11091;DHT22;5599;52.210;21.046;2022-12-18T07:11:12;-2.90;99.90
11091;DHT22;5599;52.210;21.046;2022-12-18T07:13:41;-3.00;1.00
11091;DHT22;5599;52.210;21.046;2022-12-18T07:16:12;-2.90;1.00
11091;DHT22;5599;52.210;21.046;2022-12-18T07:18:48;-2.90;1.00
11091;DHT22;5599;52.210;21.046;2022-12-18T07:21:19;-2.80;99.90
11091;DHT22;5599;52.210;21.046;2022-12-18T07:23:48;-2.80;99.90
11091;DHT22;5599;52.210;21.046;2022-12-18T07:26:19;-2.90;14.70
11091;DHT22;5599;52.210;21.046;2022-12-18T07:28:49;-2.80;99.90
11091;DHT22;5599;52.210;21.046;2022-12-18T07:31:21;-2.80;99.90
11091;DHT22;5599;52.210;21.046;2022-12-18T07:33:51;-2.70;99.90
11091;DHT22;5599;52.210;21.046;2022-12-18T07:36:23;-2.60;99.90
11091;DHT22;5599;52.210;21.046;2022-12-18T07:38:52;-2.60;1.00
11091;DHT22;5599;52.210;21.046;2022-12-18T07:41:22;-2.50;1.00
11091;DHT22;5599;52.210;21.046;2022-12-18T07:43:52;-2.50;1.00
11091;DHT22;5599;52.210;21.046;2022-12-18T07:46:21;-2.40;99.90
11091;DHT22;5599;52.210;21.046;2022-12-18T07:48:50;-2.40;1.00
11091;DHT22;5599;52.210;21.046;2022-12-18T07:51:19;-2.40;1.00
11091;DHT22;5599;52.210;21.046;2022-12-18T07:53:48;-2.30;1.00
11091;DHT22;5599;52.210;21.046;2022-12-18T07:56:19;-2.10;99.90
11091;DHT22;5599;52.210;21.046;2022-12-18T07:58:57;-2.00;7.80
11091;DHT22;5599;52.210;21.046;2022-12-18T08:01:27;-2.00;99.90
11091;DHT22;5599;52.210;21.046;2022-12-18T08:03:57;-2.10;1.00
11091;DHT22;5599;52.210;21.046;2022-12-18T08:06:26;-2.00;99.90
11091;DHT22;5599;52.210;21.046;2022-12-18T08:08:56;-2.00;1.00
11091;DHT22;5599;52.210;21.046;2022-12-18T08:11:26;-2.00;1.00
11091;DHT22;5599;52.210;21.046;2022-12-18T08:13:57;-1.90;79.10
11091;DHT22;5599;52.210;21.046;2022-12-18T08:16:27;-1.80;1.00
11091;DHT22;5599;52.210;21.046;2022-12-18T08:18:56;-1.70;99.90
11091;DHT22;5599;52.210;21.046;2022-12-18T08:21:26;-1.70;99.90
11091;DHT22;5599;52.210;21.046;2022-12-18T08:23:57;-1.60;1.00
11091;DHT22;5599;52.210;21.046;2022-12-18T08:26:28;-1.40;1.00
11091;DHT22;5599;52.210;21.046;2022-12-18T08:29:00;-1.40;99.90
11091;DHT22;5599;52.210;21.046;2022-12-18T08:31:29;-1.40;1.00
11091;DHT22;5599;52.210;21.046;2022-12-18T08:34:00;-1.30;1.00
11091;DHT22;5599;52.210;21.046;2022-12-18T08:36:29;-1.40;1.00
11091;DHT22;5599;52.210;21.046;2022-12-18T08:38:58;-1.40;1.00
11091;DHT22;5599;52.210;21.046;2022-12-18T08:41:27;-1.30;1.00
11091;DHT22;5599;52.210;21.046;2022-12-18T08:43:59;-1.40;99.90
11091;DHT22;5599;52.210;21.046;2022-12-18T08:46:45;-1.40;99.90
11091;DHT22;5599;52.210;21.046;2022-12-18T08:49:14;-1.40;99.90
11091;DHT22;5599;52.210;21.046;2022-12-18T08:51:43;-1.40;99.90
11091;DHT22;5599;52.210;21.046;2022-12-18T08:54:12;-1.50;40.50
11091;DHT22;5599;52.210;21.046;2022-12-18T08:56:42;-1.50;16.80
11091;DHT22;5599;52.210;21.046;2022-12-18T08:59:12;-1.50;1.00
11091;DHT22;5599;52.210;21.046;2022-12-18T09:01:46;-1.50;1.00
11091;DHT22;5599;52.210;21.046;2022-12-18T09:04:16;-1.60;1.00
11091;DHT22;5599;52.210;21.046;2022-12-18T09:06:45;-1.60;99.90
11091;DHT22;5599;52.210;21.046;2022-12-18T09:09:14;-1.60;99.90
11091;DHT22;5599;52.210;21.046;2022-12-18T09:11:43;-1.60;99.90
11091;DHT22;5599;52.210;21.046;2022-12-18T09:14:14;-1.50;99.90
11091;DHT22;5599;52.210;21.046;2022-12-18T09:16:43;-1.50;99.90
11091;DHT22;5599;52.210;21.046;2022-12-18T09:19:12;-1.40;1.00
11091;DHT22;5599;52.210;21.046;2022-12-18T09:21:41;-1.40;99.90
11091;DHT22;5599;52.210;21.046;2022-12-18T09:24:15;-1.30;1.00
11091;DHT22;5599;52.210;21.046;2022-12-18T09:26:44;-1.20;1.00
11091;DHT22;5599;52.210;21.046;2022-12-18T09:29:15;-1.10;1.00
11091;DHT22;5599;52.210;21.046;2022-12-18T09:31:45;-1.10;99.90
11091;DHT22;5599;52.210;21.046;2022-12-18T09:34:14;-1.00;77.10
11091;DHT22;5599;52.210;21.046;2022-12-18T09:36:44;-1.00;99.90
11091;DHT22;5599;52.210;21.046;2022-12-18T09:39:13;-1.00;1.00
11091;DHT22;5599;52.210;21.046;2022-12-18T09:41:46;-1.10;1.00
11091;DHT22;5599;52.210;21.046;2022-12-18T09:44:23;-1.10;1.00
11091;DHT22;5599;52.210;21.046;2022-12-18T09:47:06;-1.10;1.00
11091;DHT22;5599;52.210;21.046;2022-12-18T09:49:40;-1.10;99.60
11091;DHT22;5599;52.210;21.046;2022-12-18T09:52:16;-1.00;99.90
11091;DHT22;5599;52.210;21.046;2022-12-18T09:54:50;-0.90;99.90
11091;DHT22;5599;52.210;21.046;2022-12-18T09:57:21;-0.90;1.00
11091;DHT22;5599;52.210;21.046;2022-12-18T09:59:55;-0.90;1.00
11091;DHT22;5599;52.210;21.046;2022-12-18T10:02:26;-0.80;1.00
11091;DHT22;5599;52.210;21.046;2022-12-18T10:05:04;-0.80;99.90
11091;DHT22;5599;52.210;21.046;2022-12-18T10:07:53;-0.80;99.90
11091;DHT22;5599;52.210;21.046;2022-12-18T10:10:32;-0.90;25.30
11091;DHT22;5599;52.210;21.046;2022-12-18T10:13:10;-1.00;99.90
11091;DHT22;5599;52.210;21.046;2022-12-18T10:16:03;-1.00;99.90
11091;DHT22;5599;52.210;21.046;2022-12-18T10:19:09;-1.10;99.90
11091;DHT22;5599;52.210;21.046;2022-12-18T10:21:48;-1.20;1.00
11091;DHT22;5599;52.210;21.046;2022-12-18T10:24:25;-1.30;1.00
11091;DHT22;5599;52.210;21.046;2022-12-18T10:26:59;-1.30;99.90
11091;DHT22;5599;52.210;21.046;2022-12-18T10:29:37;-1.40;99.90
11091;DHT22;5599;52.210;21.046;2022-12-18T10:32:13;-1.40;1.00
11091;DHT22;5599;52.210;21.046;2022-12-18T10:34:46;-1.40;99.90
11091;DHT22;5599;52.210;21.046;2022-12-18T10:37:17;-1.30;99.90
11091;DHT22;5599;52.210;21.046;2022-12-18T10:39:47;-1.30;99.90
11091;DHT22;5599;52.210;21.046;2022-12-18T10:42:33;-1.20;99.90
11091;DHT22;5599;52.210;21.046;2022-12-18T10:45:07;-1.20;1.00
11091;DHT22;5599;52.210;21.046;2022-12-18T10:47:42;-1.20;99.90
11091;DHT22;5599;52.210;21.046;2022-12-18T10:50:22;-1.10;99.90
11091;DHT22;5599;52.210;21.046;2022-12-18T10:52:59;-1.20;1.00
11091;DHT22;5599;52.210;21.046;2022-12-18T10:55:32;-1.30;12.50
11091;DHT22;5599;52.210;21.046;2022-12-18T10:58:16;-1.30;1.00
11091;DHT22;5599;52.210;21.046;2022-12-18T11:01:10;-1.30;99.90
11091;DHT22;5599;52.210;21.046;2022-12-18T11:03:42;-1.20;99.90
11091;DHT22;5599;52.210;21.046;2022-12-18T11:06:13;-1.30;49.20
11091;DHT22;5599;52.210;21.046;2022-12-18T11:08:44;-1.20;99.90
11091;DHT22;5599;52.210;21.046;2022-12-18T11:11:25;-1.10;1.00
11091;DHT22;5599;52.210;21.046;2022-12-18T11:13:59;-1.00;1.00
11091;DHT22;5599;52.210;21.046;2022-12-18T11:16:31;-0.90;1.00
11091;DHT22;5599;52.210;21.046;2022-12-18T11:19:19;-0.90;1.00
11091;DHT22;5599;52.210;21.046;2022-12-18T11:21:50;-0.90;1.00
11091;DHT22;5599;52.210;21.046;2022-12-18T11:24:24;-0.80;8.00
11091;DHT22;5599;52.210;21.046;2022-12-18T11:26:56;-0.60;99.90
11091;DHT22;5599;52.210;21.046;2022-12-18T11:29:33;-0.60;1.00
11091;DHT22;5599;52.210;21.046;2022-12-18T11:32:34;-0.70;99.90
11091;DHT22;5599;52.210;21.046;2022-12-18T11:35:13;-0.70;1.00
11091;DHT22;5599;52.210;21.046;2022-12-18T11:37:47;-0.60;56.10
11091;DHT22;5599;52.210;21.046;2022-12-18T11:40:30;-0.60;21.10
11091;DHT22;5599;52.210;21.046;2022-12-18T11:43:11;-0.40;99.90
11091;DHT22;5599;52.210;21.046;2022-12-18T11:45:48;-0.30;1.00
11091;DHT22;5599;52.210;21.046;2022-12-18T11:48:22;-0.30;99.90
11091;DHT22;5599;52.210;21.046;2022-12-18T11:50:54;-0.30;99.90
11091;DHT22;5599;52.210;21.046;2022-12-18T11:53:25;-0.20;1.00
11091;DHT22;5599;52.210;21.046;2022-12-18T11:56:04;-0.30;1.00
11091;DHT22;5599;52.210;21.046;2022-12-18T11:58:45;-0.20;1.00
11091;DHT22;5599;52.210;21.046;2022-12-18T12:01:34;-0.20;1.00
11091;DHT22;5599;52.210;21.046;2022-12-18T12:04:27;-0.20;1.00
11091;DHT22;5599;52.210;21.046;2022-12-18T12:07:12;-0.20;1.00
11091;DHT22;5599;52.210;21.046;2022-12-18T12:09:48;-0.20;1.00
11091;DHT22;5599;52.210;21.046;2022-12-18T12:12:30;-0.20;1.00
11091;DHT22;5599;52.210;21.046;2022-12-18T12:15:23;-0.20;1.00
11091;DHT22;5599;52.210;21.046;2022-12-18T12:17:59;-0.30;1.00
11091;DHT22;5599;52.210;21.046;2022-12-18T12:20:45;-0.20;99.90
11091;DHT22;5599;52.210;21.046;2022-12-18T12:23:23;-0.20;99.90
11091;DHT22;5599;52.210;21.046;2022-12-18T12:26:08;-0.10;99.90
11091;DHT22;5599;52.210;21.046;2022-12-18T12:28:59;-0.20;1.00
11091;DHT22;5599;52.210;21.046;2022-12-18T12:32:13;-0.20;1.00
11091;DHT22;5599;52.210;21.046;2022-12-18T12:34:54;-0.10;99.90
11091;DHT22;5599;52.210;21.046;2022-12-18T12:37:40;0.00;99.90
11091;DHT22;5599;52.210;21.046;2022-12-18T12:40:17;0.00;99.90
11091;DHT22;5599;52.210;21.046;2022-12-18T12:43:28;0.10;1.00
11091;DHT22;5599;52.210;21.046;2022-12-18T12:46:04;0.10;99.90
11091;DHT22;5599;52.210;21.046;2022-12-18T12:48:42;0.10;99.90
11091;DHT22;5599;52.210;21.046;2022-12-18T12:51:16;0.10;99.90
11091;DHT22;5599;52.210;21.046;2022-12-18T12:53:47;0.10;99.90
11091;DHT22;5599;52.210;21.046;2022-12-18T12:56:19;0.10;99.90
11091;DHT22;5599;52.210;21.046;2022-12-18T12:58:57;0.00;99.90
11091;DHT22;5599;52.210;21.046;2022-12-18T13:01:33;0.00;99.90
11091;DHT22;5599;52.210;21.046;2022-12-18T13:04:14;0.00;99.90
11091;DHT22;5599;52.210;21.046;2022-12-18T13:06:52;-0.10;99.90
11091;DHT22;5599;52.210;21.046;2022-12-18T13:09:23;-0.10;99.90
11091;DHT22;5599;52.210;21.046;2022-12-18T13:12:02;-0.20;99.90
11091;DHT22;5599;52.210;21.046;2022-12-18T13:14:49;-0.30;99.90
11091;DHT22;5599;52.210;21.046;2022-12-18T13:17:29;-0.40;99.90
11091;DHT22;5599;52.210;21.046;2022-12-18T13:20:11;-0.60;1.00
11091;DHT22;5599;52.210;21.046;2022-12-18T13:22:45;-0.60;1.00
11091;DHT22;5599;52.210;21.046;2022-12-18T13:25:34;-0.60;1.00
11091;DHT22;5599;52.210;21.046;2022-12-18T13:28:11;-0.80;37.70
11091;DHT22;5599;52.210;21.046;2022-12-18T13:30:52;-0.80;99.90
11091;DHT22;5599;52.210;21.046;2022-12-18T13:33:47;-0.80;99.90
11091;DHT22;5599;52.210;21.046;2022-12-18T13:36:37;-0.90;99.90
11091;DHT22;5599;52.210;21.046;2022-12-18T13:42:39;-1.00;1.00
11091;DHT22;5599;52.210;21.046;2022-12-18T13:45:42;-1.00;27.30
11091;DHT22;5599;52.210;21.046;2022-12-18T13:48:20;-1.00;1.00
11091;DHT22;5599;52.210;21.046;2022-12-18T13:50:53;-1.00;1.00
11091;DHT22;5599;52.210;21.046;2022-12-18T13:53:27;-1.10;39.70
11091;DHT22;5599;52.210;21.046;2022-12-18T13:55:57;-1.20;99.90
11091;DHT22;5599;52.210;21.046;2022-12-18T13:58:27;-1.20;99.90
11091;DHT22;5599;52.210;21.046;2022-12-18T14:00:57;-1.20;1.00
11091;DHT22;5599;52.210;21.046;2022-12-18T14:03:29;-1.20;1.00
11091;DHT22;5599;52.210;21.046;2022-12-18T14:06:05;-1.20;1.00
11091;DHT22;5599;52.210;21.046;2022-12-18T14:08:39;-1.20;1.00
11091;DHT22;5599;52.210;21.046;2022-12-18T14:11:19;-1.20;48.60
11091;DHT22;5599;52.210;21.046;2022-12-18T14:13:52;-1.30;1.00
11091;DHT22;5599;52.210;21.046;2022-12-18T14:16:23;-1.30;1.00
11091;DHT22;5599;52.210;21.046;2022-12-18T14:18:54;-1.30;99.90
11091;DHT22;5599;52.210;21.046;2022-12-18T14:21:30;-1.40;1.00
11091;DHT22;5599;52.210;21.046;2022-12-18T14:24:11;-1.40;99.90
11091;DHT22;5599;52.210;21.046;2022-12-18T14:26:41;-1.40;99.90
11091;DHT22;5599;52.210;21.046;2022-12-18T14:29:24;-1.50;99.90
11091;DHT22;5599;52.210;21.046;2022-12-18T14:32:11;-1.50;11.90
11091;DHT22;5599;52.210;21.046;2022-12-18T14:34:45;-1.60;1.00
11091;DHT22;5599;52.210;21.046;2022-12-18T14:37:16;-1.60;1.00
11091;DHT22;5599;52.210;21.046;2022-12-18T14:39:57;-1.50;1.00
11091;DHT22;5599;52.210;21.046;2022-12-18T14:42:37;-1.50;1.00
11091;DHT22;5599;52.210;21.046;2022-12-18T14:45:33;-1.50;99.90
11091;DHT22;5599;52.210;21.046;2022-12-18T14:48:17;-1.60;99.90
11091;DHT22;5599;52.210;21.046;2022-12-18T14:51:01;-1.60;1.00
11091;DHT22;5599;52.210;21.046;2022-12-18T14:53:35;-1.70;99.90
11091;DHT22;5599;52.210;21.046;2022-12-18T14:56:17;-1.70;1.00
11091;DHT22;5599;52.210;21.046;2022-12-18T14:58:49;-1.80;1.00
11091;DHT22;5599;52.210;21.046;2022-12-18T15:01:27;-1.80;99.90
11091;DHT22;5599;52.210;21.046;2022-12-18T15:04:01;-1.70;36.30
11091;DHT22;5599;52.210;21.046;2022-12-18T15:06:35;-1.80;61.80
11091;DHT22;5599;52.210;21.046;2022-12-18T15:09:21;-1.90;14.30
11091;DHT22;5599;52.210;21.046;2022-12-18T15:11:56;-1.90;99.90
11091;DHT22;5599;52.210;21.046;2022-12-18T15:14:38;-1.90;1.00
11091;DHT22;5599;52.210;21.046;2022-12-18T15:17:17;-1.80;1.00
11091;DHT22;5599;52.210;21.046;2022-12-18T15:19:51;-1.80;1.00
11091;DHT22;5599;52.210;21.046;2022-12-18T15:22:25;-1.80;1.00
11091;DHT22;5599;52.210;21.046;2022-12-18T15:24:57;-1.80;1.00
11091;DHT22;5599;52.210;21.046;2022-12-18T15:27:32;-1.80;15.00
11091;DHT22;5599;52.210;21.046;2022-12-18T15:30:23;-1.90;1.00
11091;DHT22;5599;52.210;21.046;2022-12-18T15:33:16;-1.80;99.90
11091;DHT22;5599;52.210;21.046;2022-12-18T15:35:57;-1.80;99.90
11091;DHT22;5599;52.210;21.046;2022-12-18T15:38:27;-1.70;99.90
11091;DHT22;5599;52.210;21.046;2022-12-18T15:41:01;-1.70;99.90
11091;DHT22;5599;52.210;21.046;2022-12-18T15:43:38;-1.80;99.90
11091;DHT22;5599;52.210;21.046;2022-12-18T15:46:11;-1.80;1.00
11091;DHT22;5599;52.210;21.046;2022-12-18T15:48:43;-1.70;15.60
11091;DHT22;5599;52.210;21.046;2022-12-18T15:51:19;-1.80;99.90
11091;DHT22;5599;52.210;21.046;2022-12-18T15:53:52;-1.80;1.00
11091;DHT22;5599;52.210;21.046;2022-12-18T15:56:25;-1.90;1.00
11091;DHT22;5599;52.210;21.046;2022-12-18T15:59:17;-1.80;99.90
11091;DHT22;5599;52.210;21.046;2022-12-18T16:01:49;-1.70;99.90
11091;DHT22;5599;52.210;21.046;2022-12-18T16:04:30;-1.70;1.00
11091;DHT22;5599;52.210;21.046;2022-12-18T16:07:02;-1.70;99.90
11091;DHT22;5599;52.210;21.046;2022-12-18T16:09:42;-1.70;32.30
11091;DHT22;5599;52.210;21.046;2022-12-18T16:12:18;-1.80;13.40
11091;DHT22;5599;52.210;21.046;2022-12-18T16:14:49;-1.80;36.90
11091;DHT22;5599;52.210;21.046;2022-12-18T16:17:20;-1.80;43.00
11091;DHT22;5599;52.210;21.046;2022-12-18T16:19:51;-1.90;1.00
11091;DHT22;5599;52.210;21.046;2022-12-18T16:22:25;-1.90;81.60
11091;DHT22;5599;52.210;21.046;2022-12-18T16:24:57;-2.00;99.90